Time;durP1;ratioP1;P1;durP2;ratioP2;P2;SDS_P1;SDS_P2;PMS_P1;PMS_P2;Temp;Humidity;BMP_temperature;BMP_pressure;BME280_temperature;BME280_humidity;BME280_pressure;Samples;Min_cycle;Max_cycle;Signal;HPM_P1;HPM_P2
2022/12/23 00:01:17;;;;;;;0.15;0.00;;;10.30;84.90;;;;;;4977813;28;20027;-81
2022/12/23 00:03:44;;;;;;;0.40;0.20;;;10.40;84.10;;;;;;4991940;28;20031;-81
2022/12/23 00:06:23;;;;;;;0.38;0.10;;;10.50;84.40;;;;;;4992194;28;20070;-81
2022/12/23 00:08:56;;;;;;;0.00;0.00;;;10.50;84.30;;;;;;5007188;28;20042;-81
2022/12/23 00:11:32;;;;;;;1.73;0.22;;;10.60;84.00;;;;;;5006481;28;20055;-82
2022/12/23 00:16:49;;;;;;;0.05;0.05;;;10.80;83.90;;;;;;5004286;28;20030;-81
2022/12/23 00:19:16;;;;;;;0.10;0.10;;;10.80;84.10;;;;;;4977010;28;20031;-82
2022/12/23 00:22:05;;;;;;;0.00;0.00;;;10.70;85.20;;;;;;4992380;28;20034;-81
2022/12/23 00:24:33;;;;;;;0.38;0.17;;;10.80;84.50;;;;;;4976964;28;20104;-79
2022/12/23 00:26:59;;;;;;;0.20;0.03;;;10.80;84.70;;;;;;4976927;28;20113;-81
2022/12/23 00:29:28;;;;;;;0.13;0.00;;;10.80;85.10;;;;;;4975833;28;20038;-80
2022/12/23 00:32:04;;;;;;;0.10;0.00;;;10.80;84.90;;;;;;4975959;28;20027;-81
2022/12/23 00:34:38;;;;;;;0.63;0.00;;;10.90;84.50;;;;;;4976132;28;20031;-80
2022/12/23 00:37:05;;;;;;;0.10;0.00;;;11.00;84.00;;;;;;4991609;28;20039;-81
2022/12/23 00:45:23;;;;;;;0.40;0.03;;;11.20;83.30;;;;;;4988445;28;20050;-82
2022/12/23 00:50:38;;;;;;;0.45;0.00;;;11.40;82.50;;;;;;4977058;28;20506;-80
2022/12/23 00:53:13;;;;;;;0.35;0.10;;;11.40;82.50;;;;;;4991219;28;20034;-80
2022/12/23 00:55:40;;;;;;;0.20;0.10;;;11.40;82.70;;;;;;4975321;28;20128;-80
2022/12/23 00:58:11;;;;;;;0.45;0.00;;;11.50;83.00;;;;;;5006992;28;20038;-80
2022/12/23 01:06:26;;;;;;;1.17;0.25;;;11.40;83.10;;;;;;4976161;28;20518;-80
2022/12/23 01:08:52;;;;;;;0.00;0.00;;;11.40;82.90;;;;;;4975022;28;20121;-80
2022/12/23 01:11:17;;;;;;;0.15;0.10;;;11.40;83.40;;;;;;4971066;28;20047;-81
2022/12/23 01:13:44;;;;;;;0.10;0.10;;;11.40;83.10;;;;;;4971994;28;20499;-78
2022/12/23 01:16:11;;;;;;;0.20;0.10;;;11.40;83.40;;;;;;4940037;29;20035;-80
2022/12/23 01:18:39;;;;;;;0.65;0.20;;;11.40;83.20;;;;;;4987981;28;20518;-80
2022/12/23 01:21:10;;;;;;;0.47;0.05;;;11.50;83.90;;;;;;4971770;28;20035;-80
2022/12/23 01:23:37;;;;;;;1.85;0.10;;;11.50;83.20;;;;;;4956610;28;20040;-79
2022/12/23 01:26:07;;;;;;;1.10;0.10;;;11.50;83.10;;;;;;4971807;28;20031;-80
2022/12/23 01:28:59;;;;;;;0.00;0.00;;;11.60;83.10;;;;;;4971794;28;20427;-81
2022/12/23 01:31:50;;;;;;;0.30;0.10;;;11.60;83.10;;;;;;4955078;28;20066;-81
2022/12/23 01:34:19;;;;;;;0.00;0.00;;;11.60;83.10;;;;;;4976403;28;20043;-81
2022/12/23 01:37:08;;;;;;;0.10;0.03;;;11.60;83.30;;;;;;4956729;28;20443;-81
2022/12/23 01:39:52;;;;;;;0.00;0.00;;;11.60;83.20;;;;;;4955083;29;20543;-81
2022/12/23 01:42:45;;;;;;;0.10;0.10;;;11.60;82.80;;;;;;4971438;28;20035;-81
2022/12/23 01:45:35;;;;;;;0.05;0.05;;;11.70;82.50;;;;;;4967571;28;20492;-81
2022/12/23 01:48:40;;;;;;;0.32;0.00;;;11.70;82.40;;;;;;4971306;28;20027;-83
2022/12/23 01:51:33;;;;;;;0.22;0.05;;;11.80;82.20;;;;;;4954703;28;20038;-82
2022/12/23 01:54:24;;;;;;;0.13;0.00;;;11.70;82.20;;;;;;4973504;28;20028;-83
2022/12/23 01:57:11;;;;;;;0.50;0.10;;;11.80;82.10;;;;;;4966937;28;20043;-82
2022/12/23 02:05:12;;;;;;;0.70;0.13;;;11.80;82.90;;;;;;4982909;28;20115;-80
2022/12/23 02:11:23;;;;;;;0.40;0.10;;;11.70;82.30;;;;;;4958866;28;20066;-80
2022/12/23 02:16:48;;;;;;;0.00;0.00;;;11.80;82.30;;;;;;4975604;28;20403;-81
2022/12/23 02:19:47;;;;;;;0.00;0.00;;;11.80;82.10;;;;;;4989173;28;20038;-80
2022/12/23 02:22:44;;;;;;;0.00;0.00;;;11.90;81.90;;;;;;5005374;28;20065;-80
2022/12/23 02:25:34;;;;;;;0.22;0.00;;;11.90;81.40;;;;;;4976216;28;20072;-80
2022/12/23 02:28:36;;;;;;;0.75;0.00;;;12.00;81.30;;;;;;4976136;28;20026;-80
2022/12/23 02:31:48;;;;;;;0.38;0.00;;;12.00;81.20;;;;;;4992161;28;20124;-80
2022/12/23 02:34:54;;;;;;;0.00;0.00;;;12.00;81.00;;;;;;4990782;28;20093;-80
2022/12/23 02:37:50;;;;;;;0.00;0.00;;;12.10;80.40;;;;;;4975624;28;20096;-81
2022/12/23 02:40:44;;;;;;;0.00;0.00;;;12.10;80.50;;;;;;4976392;28;20118;-81
2022/12/23 02:43:47;;;;;;;0.00;0.00;;;12.00;81.00;;;;;;4976065;28;20061;-81
2022/12/23 02:46:52;;;;;;;0.00;0.00;;;12.00;81.10;;;;;;4989866;28;20035;-81
2022/12/23 02:49:35;;;;;;;0.08;0.00;;;12.00;82.00;;;;;;4976083;28;20493;-81
2022/12/23 02:52:32;;;;;;;0.05;0.00;;;11.90;83.00;;;;;;4990675;28;20041;-81
2022/12/23 02:55:14;;;;;;;0.00;0.00;;;11.90;83.20;;;;;;4955881;28;20030;-80
2022/12/23 02:57:46;;;;;;;0.00;0.00;;;12.00;82.50;;;;;;4987137;28;20042;-80
2022/12/23 03:00:14;;;;;;;0.00;0.00;;;12.00;82.80;;;;;;4973909;28;20121;-81
2022/12/23 03:02:43;;;;;;;1.48;0.00;;;12.00;82.80;;;;;;4975053;28;20046;-80
2022/12/23 03:05:26;;;;;;;0.10;0.00;;;12.00;82.90;;;;;;4972949;28;20047;-79
2022/12/23 03:07:55;;;;;;;0.05;0.00;;;12.00;82.90;;;;;;4973372;28;20034;-79
2022/12/23 03:11:00;;;;;;;1.20;0.00;;;12.00;82.50;;;;;;4979644;28;20073;-79
2022/12/23 03:14:02;;;;;;;0.40;0.00;;;12.00;82.40;;;;;;4944733;28;20498;-80
2022/12/23 03:16:53;;;;;;;0.00;0.00;;;12.00;82.40;;;;;;4977173;28;20026;-80
2022/12/23 03:19:54;;;;;;;0.10;0.10;;;12.00;82.90;;;;;;4976550;28;20093;-79
2022/12/23 03:22:24;;;;;;;0.00;0.00;;;12.10;83.20;;;;;;4936014;28;20037;-80
2022/12/23 03:25:13;;;;;;;0.65;0.10;;;12.10;82.20;;;;;;4977512;28;20518;-80
2022/12/23 03:31:43;;;;;;;0.00;0.00;;;12.10;82.00;;;;;;4998310;28;20034;-80
2022/12/23 03:34:34;;;;;;;0.00;0.00;;;12.10;82.20;;;;;;5012173;28;20521;-80
2022/12/23 03:37:05;;;;;;;1.00;0.00;;;12.10;82.00;;;;;;4969444;28;20395;-80
2022/12/23 03:40:42;;;;;;;0.95;0.17;;;12.10;82.20;;;;;;4997850;28;20070;-80
2022/12/23 03:43:56;;;;;;;0.00;0.00;;;12.10;82.20;;;;;;4954490;29;20031;-80
2022/12/23 03:47:14;;;;;;;0.00;0.00;;;12.10;82.20;;;;;;4956693;28;20028;-80
2022/12/23 03:50:23;;;;;;;0.85;0.00;;;12.00;82.10;;;;;;4969461;28;20042;-80
2022/12/23 03:53:09;;;;;;;0.10;0.00;;;12.00;81.70;;;;;;4956450;28;20501;-80
2022/12/23 03:56:04;;;;;;;0.05;0.00;;;12.00;82.80;;;;;;4940549;29;20112;-79
2022/12/23 03:58:58;;;;;;;0.08;0.05;;;12.00;81.30;;;;;;4955647;29;20031;-80
2022/12/23 04:02:05;;;;;;;1.98;0.00;;;12.00;81.80;;;;;;4955370;28;20485;-80
2022/12/23 04:05:16;;;;;;;3.55;0.00;;;11.90;82.00;;;;;;4940024;29;20062;-79
2022/12/23 04:08:03;;;;;;;0.20;0.10;;;11.90;82.30;;;;;;4954206;28;20431;-79
2022/12/23 04:10:38;;;;;;;0.32;0.08;;;11.90;82.70;;;;;;4955728;28;20043;-80
2022/12/23 04:13:28;;;;;;;1.20;0.00;;;11.80;82.90;;;;;;4956095;28;20035;-80
2022/12/23 04:16:15;;;;;;;1.65;0.00;;;11.80;83.40;;;;;;4940025;29;20066;-80
2022/12/23 04:19:03;;;;;;;0.00;0.00;;;11.60;83.90;;;;;;4955827;28;20043;-80
2022/12/23 04:21:35;;;;;;;0.00;0.00;;;11.60;84.50;;;;;;4956294;28;20496;-81
2022/12/23 04:24:03;;;;;;;0.20;0.10;;;11.50;85.00;;;;;;4939721;29;20065;-80
2022/12/23 04:26:32;;;;;;;0.00;0.00;;;11.50;85.20;;;;;;4955547;29;20043;-79
2022/12/23 04:29:18;;;;;;;0.80;0.20;;;11.50;85.30;;;;;;4939828;29;20118;-80
2022/12/23 04:31:45;;;;;;;1.10;0.10;;;11.50;85.40;;;;;;4955904;28;20035;-79
2022/12/23 04:34:19;;;;;;;0.80;0.00;;;11.50;85.50;;;;;;4955586;28;20424;-80
2022/12/23 04:36:44;;;;;;;0.00;0.00;;;11.60;85.60;;;;;;4938356;29;20071;-80
2022/12/23 04:39:10;;;;;;;0.00;0.00;;;11.60;85.80;;;;;;4941193;28;20063;-80
2022/12/23 04:41:37;;;;;;;0.10;0.10;;;11.60;85.80;;;;;;4976967;28;20041;-80
2022/12/23 04:44:04;;;;;;;0.80;0.00;;;11.60;86.20;;;;;;4991170;28;20047;-79
2022/12/23 04:46:32;;;;;;;0.20;0.00;;;11.50;86.70;;;;;;4991802;28;20039;-79
2022/12/23 04:49:00;;;;;;;0.10;0.10;;;11.50;87.40;;;;;;4975672;28;20081;-79
2022/12/23 04:51:26;;;;;;;2.33;1.42;;;11.40;87.70;;;;;;4991713;28;20054;-80
2022/12/23 04:53:54;;;;;;;1.33;0.60;;;11.40;88.10;;;;;;4975033;28;20070;-81
2022/12/23 04:56:21;;;;;;;0.30;0.22;;;11.40;88.80;;;;;;4991420;28;20488;-81
2022/12/23 04:58:50;;;;;;;0.10;0.00;;;11.40;89.20;;;;;;4991411;28;20035;-81
2022/12/23 05:01:19;;;;;;;0.08;0.00;;;11.30;90.00;;;;;;4991370;28;20126;-79
2022/12/23 05:03:46;;;;;;;0.10;0.00;;;11.20;90.60;;;;;;4991575;28;20031;-81
2022/12/23 05:06:14;;;;;;;0.50;0.30;;;11.20;90.80;;;;;;5007074;28;20054;-79
2022/12/23 05:08:42;;;;;;;0.32;0.22;;;11.20;91.10;;;;;;4976479;28;20065;-81
2022/12/23 05:11:11;;;;;;;0.20;0.10;;;11.20;91.40;;;;;;4987350;28;20086;-80
2022/12/23 05:13:39;;;;;;;2.05;1.45;;;11.20;91.60;;;;;;4994402;28;20093;-81
2022/12/23 05:16:07;;;;;;;1.70;1.10;;;11.20;91.50;;;;;;4996056;28;20038;-81
2022/12/23 05:18:43;;;;;;;2.15;1.20;;;11.20;91.60;;;;;;4992971;28;20045;-81
2022/12/23 05:21:31;;;;;;;0.52;0.40;;;11.20;91.60;;;;;;4995476;28;20113;-82
2022/12/23 05:24:02;;;;;;;1.35;0.60;;;11.20;91.60;;;;;;4995932;28;20105;-81
2022/12/23 05:26:42;;;;;;;0.50;0.50;;;11.20;91.80;;;;;;4994655;28;20553;-82
2022/12/23 05:29:35;;;;;;;0.75;0.60;;;11.20;91.90;;;;;;4990670;28;20026;-82
2022/12/23 05:32:04;;;;;;;1.27;0.43;;;11.20;92.30;;;;;;4976615;28;20137;-82
2022/12/23 05:34:34;;;;;;;1.95;0.52;;;11.10;92.30;;;;;;4994410;28;20117;-82
2022/12/23 05:37:21;;;;;;;1.15;0.70;;;11.10;92.30;;;;;;5015462;28;20110;-82
2022/12/23 05:40:50;;;;;;;0.98;0.85;;;11.10;92.50;;;;;;4995597;28;20042;-82
2022/12/23 05:43:37;;;;;;;2.15;0.63;;;11.10;92.50;;;;;;5001199;28;20041;-82
2022/12/23 05:46:26;;;;;;;0.68;0.47;;;11.10;92.70;;;;;;4997730;28;20089;-80
2022/12/23 05:48:54;;;;;;;0.43;0.40;;;11.10;92.70;;;;;;4994188;28;20030;-80
2022/12/23 05:51:20;;;;;;;0.30;0.30;;;11.10;92.80;;;;;;4993952;28;20368;-80
2022/12/23 05:53:53;;;;;;;0.40;0.28;;;11.10;92.90;;;;;;4993969;28;20048;-81
2022/12/23 05:56:22;;;;;;;1.10;0.10;;;11.10;93.00;;;;;;4993526;28;20077;-79
2022/12/23 05:58:50;;;;;;;1.08;0.40;;;11.00;92.90;;;;;;5009791;28;20040;-79
2022/12/23 06:01:27;;;;;;;;;;;11.00;92.90;;;;;;4993345;28;20118;-79
2022/12/23 06:03:55;;;;;;;0.17;0.10;;;11.00;93.00;;;;;;4984670;28;19917;-80
2022/12/23 06:06:22;;;;;;;0.65;0.10;;;11.00;93.20;;;;;;4996901;28;20435;-78
2022/12/23 06:08:50;;;;;;;0.57;0.32;;;11.00;93.30;;;;;;4992953;28;20026;-80
2022/12/23 06:11:28;;;;;;;0.50;0.40;;;11.00;93.40;;;;;;4993557;28;20105;-80
2022/12/23 06:14:06;;;;;;;0.68;0.32;;;11.00;93.60;;;;;;4977244;28;20027;-80
2022/12/23 06:16:34;;;;;;;1.13;0.25;;;11.00;93.60;;;;;;4974794;28;20031;-80
2022/12/23 06:19:24;;;;;;;0.30;0.20;;;11.00;93.60;;;;;;4993661;28;20037;-79
2022/12/23 06:22:35;;;;;;;0.38;0.30;;;11.00;93.70;;;;;;4976810;28;20034;-81
2022/12/23 06:25:04;;;;;;;0.40;0.30;;;11.00;93.60;;;;;;4994058;28;20034;-82
2022/12/23 06:28:16;;;;;;;0.55;0.28;;;11.00;93.60;;;;;;4980318;28;20026;-81
2022/12/23 06:30:43;;;;;;;0.25;0.10;;;11.00;93.60;;;;;;4994136;28;20129;-81
2022/12/23 06:33:21;;;;;;;0.77;0.63;;;10.90;93.70;;;;;;4976565;28;20089;-80
2022/12/23 06:35:53;;;;;;;3.55;0.88;;;11.00;93.70;;;;;;4975462;28;20042;-81
2022/12/23 06:39:01;;;;;;;2.70;0.80;;;11.00;93.80;;;;;;4961158;28;20034;-82
2022/12/23 06:42:21;;;;;;;1.80;0.82;;;11.00;94.00;;;;;;4994634;28;20034;-82
2022/12/23 06:49:06;;;;;;;3.67;1.20;;;10.90;94.20;;;;;;4933970;29;20583;-83
2022/12/23 06:56:05;;;;;;;3.65;1.70;;;10.80;94.40;;;;;;4933586;29;20090;-82
2022/12/23 06:58:41;;;;;;;3.70;1.83;;;10.80;94.50;;;;;;4916767;29;20043;-80
2022/12/23 07:01:28;;;;;;;3.95;1.83;;;10.80;94.60;;;;;;4911115;29;20389;-82
2022/12/23 07:04:00;;;;;;;2.00;1.38;;;10.90;94.80;;;;;;4917492;29;20139;-82
2022/12/23 07:06:50;;;;;;;1.75;0.85;;;10.90;94.70;;;;;;4931608;29;20110;-81
2022/12/23 07:09:57;;;;;;;1.92;0.68;;;10.80;94.70;;;;;;4920444;29;20042;-81
2022/12/23 07:13:06;;;;;;;1.02;0.60;;;10.90;94.80;;;;;;4936288;29;20074;-82
2022/12/23 07:16:51;;;;;;;1.10;0.75;;;10.90;94.90;;;;;;4952492;29;20073;-81
2022/12/23 07:19:42;;;;;;;1.33;1.10;;;10.90;94.90;;;;;;4952294;29;20172;-81
2022/12/23 07:22:46;;;;;;;1.05;0.90;;;10.90;94.80;;;;;;4945374;28;20057;-80
2022/12/23 07:25:22;;;;;;;3.13;1.30;;;10.90;94.80;;;;;;4955538;28;20142;-80
2022/12/23 07:28:11;;;;;;;4.43;1.75;;;10.90;94.80;;;;;;4941443;28;20512;-81
2022/12/23 07:34:48;;;;;;;2.50;1.40;;;10.90;94.80;;;;;;4974010;28;20055;-83
2022/12/23 07:40:58;;;;;;;10.02;5.50;;;10.80;94.60;;;;;;4974025;28;20050;-84
2022/12/23 07:47:35;;;;;;;10.23;5.72;;;10.80;94.90;;;;;;4973496;28;20050;-82
2022/12/23 07:50:32;;;;;;;7.27;4.87;;;10.90;95.00;;;;;;4974129;28;20023;-82
2022/12/23 07:54:11;;;;;;;5.93;4.32;;;10.90;94.90;;;;;;4974023;28;20301;-83
2022/12/23 07:56:36;;;;;;;6.35;4.22;;;10.90;94.80;;;;;;4972548;28;20034;-81
2022/12/23 07:59:46;;;;;;;5.00;3.75;;;11.10;94.30;;;;;;4940089;28;20031;-80
2022/12/23 08:03:05;;;;;;;7.63;4.53;;;11.10;94.10;;;;;;4972684;28;20101;-80
2022/12/23 08:05:31;;;;;;;13.55;3.88;;;11.20;93.50;;;;;;4956219;28;20043;-79
2022/12/23 08:07:56;;;;;;;4.97;2.90;;;11.40;93.20;;;;;;4972428;28;20037;-79
2022/12/23 08:10:22;;;;;;;7.88;3.00;;;11.60;91.50;;;;;;4972879;28;20031;-79
2022/12/23 08:12:51;;;;;;;5.43;3.35;;;11.70;90.40;;;;;;4975716;28;20404;-84
2022/12/23 08:15:25;;;;;;;1.63;0.77;;;11.90;89.80;;;;;;4960124;28;20039;-87
2022/12/23 08:17:53;;;;;;;6.17;1.50;;;12.10;86.70;;;;;;4976188;28;20027;-83
2022/12/23 08:20:18;;;;;;;1.40;0.80;;;12.20;86.40;;;;;;4975914;28;20275;-83
2022/12/23 08:22:44;;;;;;;1.20;0.75;;;12.40;86.00;;;;;;4975732;28;20023;-83
2022/12/23 08:25:11;;;;;;;1.50;0.80;;;12.40;84.70;;;;;;4977126;28;20630;-83
2022/12/23 08:27:36;;;;;;;1.63;0.63;;;12.50;84.10;;;;;;4960937;28;20062;-84
2022/12/23 08:30:03;;;;;;;1.00;0.32;;;12.60;83.70;;;;;;4976923;28;20530;-82
2022/12/23 08:53:48;;;;;;;0.93;0.30;;;12.10;85.10;;;;;;4920414;29;20116;-87
2022/12/23 08:57:19;;;;;;;0.40;0.40;;;12.20;84.80;;;;;;4900739;29;20089;-89
2022/12/23 09:03:26;;;;;;;2.65;0.30;;;12.20;85.30;;;;;;4862573;29;20533;-82
2022/12/23 09:05:53;;;;;;;0.10;0.10;;;12.20;85.50;;;;;;4896144;29;20047;-82
2022/12/23 09:08:21;;;;;;;5.65;2.90;;;12.20;85.40;;;;;;4935948;29;20032;-82
2022/12/23 09:10:46;;;;;;;19.30;8.57;;;12.20;85.40;;;;;;4919222;29;20564;-84
2022/12/23 09:13:12;;;;;;;3.97;2.08;;;12.20;85.60;;;;;;4919616;29;20072;-82
2022/12/23 09:15:45;;;;;;;1.98;1.30;;;12.30;85.90;;;;;;4919345;29;20408;-84
2022/12/23 09:18:15;;;;;;;5.43;2.05;;;12.20;86.00;;;;;;4932865;29;20527;-82
2022/12/23 09:20:40;;;;;;;1.60;0.88;;;12.20;86.30;;;;;;4920081;29;20063;-83
2022/12/23 09:23:06;;;;;;;2.00;1.10;;;12.20;86.10;;;;;;4903228;29;20123;-77
2022/12/23 09:25:34;;;;;;;0.35;0.20;;;12.20;85.40;;;;;;4919001;29;20043;-88
2022/12/23 09:27:59;;;;;;;1.02;0.50;;;12.20;83.70;;;;;;4945384;28;20042;-81
2022/12/23 09:30:25;;;;;;;0.22;0.20;;;12.20;83.70;;;;;;4972673;28;20365;-78
2022/12/23 09:32:51;;;;;;;1.25;0.40;;;12.30;83.20;;;;;;4955702;28;20031;-78
2022/12/23 09:35:17;;;;;;;1.83;0.47;;;12.30;83.80;;;;;;4955862;28;20035;-78
2022/12/23 09:37:42;;;;;;;1.30;0.80;;;12.30;83.40;;;;;;4955786;28;20475;-78
2022/12/23 09:40:13;;;;;;;1.85;1.25;;;12.30;83.80;;;;;;4956520;28;20043;-77
2022/12/23 09:43:09;;;;;;;0.73;0.50;;;12.40;83.80;;;;;;4957099;28;20091;-79
2022/12/23 09:45:55;;;;;;;;;;;12.40;83.10;;;;;;4966437;28;20419;-77
2022/12/23 09:48:25;;;;;;;1.02;0.52;;;12.40;82.20;;;;;;4934651;28;19957;-78
2022/12/23 09:50:54;;;;;;;0.57;0.22;;;12.50;82.00;;;;;;4975137;28;20031;-78
2022/12/23 09:53:48;;;;;;;1.17;0.68;;;12.50;82.60;;;;;;4973639;28;20031;-78
2022/12/23 09:56:27;;;;;;;2.75;0.65;;;12.50;82.50;;;;;;4975336;28;20031;-77
2022/12/23 09:59:11;;;;;;;0.60;0.40;;;12.50;82.10;;;;;;4973754;28;20031;-77
2022/12/23 10:02:16;;;;;;;2.70;1.25;;;12.60;82.60;;;;;;4973743;28;20507;-78
2022/12/23 10:04:56;;;;;;;0.73;0.40;;;12.60;82.80;;;;;;4973567;28;20122;-79
2022/12/23 10:07:51;;;;;;;0.47;0.20;;;12.60;82.40;;;;;;4972830;28;20038;-78
2022/12/23 10:10:43;;;;;;;0.82;0.30;;;12.60;82.00;;;;;;4973467;28;20431;-77
2022/12/23 10:13:22;;;;;;;1.15;0.40;;;12.60;82.00;;;;;;4968549;28;20049;-78
2022/12/23 10:15:50;;;;;;;1.27;0.20;;;12.60;82.20;;;;;;4973711;28;20081;-78
2022/12/23 10:18:19;;;;;;;1.42;0.43;;;12.70;81.70;;;;;;4973907;28;20034;-81
2022/12/23 10:20:55;;;;;;;0.28;0.20;;;12.70;81.70;;;;;;4973377;28;20033;-78
2022/12/23 10:23:38;;;;;;;1.63;0.30;;;12.60;82.10;;;;;;4973811;28;20141;-79
2022/12/23 10:26:24;;;;;;;3.53;0.30;;;12.60;82.60;;;;;;4973935;28;20045;-81
2022/12/23 10:29:12;;;;;;;0.25;0.20;;;12.50;82.80;;;;;;4977049;28;20034;-87
2022/12/23 10:32:03;;;;;;;0.28;0.28;;;12.50;82.90;;;;;;4974402;28;20030;-83
2022/12/23 10:34:50;;;;;;;1.17;0.40;;;12.50;83.20;;;;;;4973219;28;20399;-82
2022/12/23 10:37:40;;;;;;;0.63;0.40;;;12.40;83.60;;;;;;4974253;28;20034;-84
2022/12/23 10:40:12;;;;;;;4.80;2.95;;;12.40;84.50;;;;;;4974537;28;20364;-82
2022/12/23 10:43:02;;;;;;;1.10;0.40;;;12.50;84.80;;;;;;4973795;28;20050;-82
2022/12/23 10:45:39;;;;;;;0.40;0.40;;;12.50;84.30;;;;;;4973578;28;20034;-79
2022/12/23 10:48:37;;;;;;;0.65;0.35;;;12.50;84.50;;;;;;4977681;28;20550;-86
2022/12/23 10:51:14;;;;;;;0.98;0.20;;;12.60;84.30;;;;;;4973760;28;20027;-77
2022/12/23 10:53:51;;;;;;;0.25;0.20;;;12.80;84.20;;;;;;4978110;28;20026;-83
2022/12/23 10:56:19;;;;;;;0.65;0.47;;;12.70;82.90;;;;;;4980392;28;20054;-80
2022/12/23 10:58:50;;;;;;;0.68;0.30;;;12.70;83.30;;;;;;4996216;28;20043;-84
2022/12/23 11:01:18;;;;;;;0.43;0.20;;;12.70;83.10;;;;;;4975693;28;20094;-89
2022/12/23 11:04:27;;;;;;;3.65;1.02;;;12.60;82.60;;;;;;4972845;28;20042;-82
2022/12/23 11:06:54;;;;;;;0.25;0.20;;;12.70;83.30;;;;;;4976216;28;20027;-89
2022/12/23 11:10:05;;;;;;;0.60;0.20;;;12.70;83.30;;;;;;4991850;28;20130;-89
2022/12/23 11:12:59;;;;;;;1.85;0.30;;;12.60;83.70;;;;;;4974207;28;20097;-88
2022/12/23 11:16:21;;;;;;;1.15;0.50;;;12.60;83.60;;;;;;4973250;28;20038;-89
2022/12/23 11:19:46;;;;;;;0.28;0.20;;;12.60;83.50;;;;;;4970611;28;20035;-84
2022/12/23 11:26:16;;;;;;;0.40;0.40;;;12.60;83.20;;;;;;4975123;28;20086;-86
2022/12/23 11:33:31;;;;;;;0.65;0.52;;;12.60;83.50;;;;;;4934639;29;20075;-89
2022/12/23 11:36:41;;;;;;;0.80;0.60;;;12.70;83.70;;;;;;4896656;29;20069;-87
2022/12/23 11:40:09;;;;;;;0.52;0.40;;;12.60;82.90;;;;;;4864635;29;20045;-86
2022/12/23 11:43:26;;;;;;;;;;;12.60;82.90;;;;;;4865547;29;20459;-85
2022/12/23 11:46:58;;;;;;;1.00;0.50;;;12.70;83.20;;;;;;4865410;29;19920;-87
2022/12/23 11:50:42;;;;;;;0.68;0.30;;;12.70;84.50;;;;;;4864259;29;20038;-89
2022/12/23 11:54:04;;;;;;;0.38;0.38;;;12.60;85.10;;;;;;4862812;29;20033;-88
2022/12/23 11:57:33;;;;;;;0.70;0.57;;;12.50;85.30;;;;;;4844310;29;20046;-88
2022/12/23 12:00:59;;;;;;;0.95;0.38;;;12.50;85.50;;;;;;4862855;29;20108;-86
2022/12/23 12:04:19;;;;;;;0.63;0.30;;;12.50;85.20;;;;;;4848160;29;20029;-91
2022/12/23 12:06:45;;;;;;;1.15;0.32;;;12.50;84.80;;;;;;4830936;29;20142;-85
2022/12/23 12:09:13;;;;;;;0.40;0.30;;;12.50;85.20;;;;;;4809543;29;20156;-88
2022/12/23 12:11:52;;;;;;;0.43;0.40;;;12.40;84.80;;;;;;4797399;29;20543;-88
2022/12/23 12:14:30;;;;;;;0.80;0.40;;;12.50;85.40;;;;;;4878120;29;20068;-82
2022/12/23 12:17:24;;;;;;;0.38;0.38;;;12.40;84.40;;;;;;4893305;29;20044;-85
2022/12/23 12:20:30;;;;;;;0.75;0.40;;;12.40;84.60;;;;;;4903945;29;20393;-84
2022/12/23 12:23:07;;;;;;;1.08;0.30;;;12.50;84.60;;;;;;4920412;29;20028;-84
2022/12/23 12:25:38;;;;;;;0.60;0.22;;;12.50;84.80;;;;;;4904949;29;20497;-82
2022/12/23 12:28:36;;;;;;;0.43;0.40;;;12.40;85.40;;;;;;4921046;29;20039;-85
2022/12/23 12:31:52;;;;;;;0.93;0.40;;;12.40;85.40;;;;;;4936976;29;20035;-88
2022/12/23 12:34:54;;;;;;;1.50;0.28;;;12.40;86.10;;;;;;4936964;29;20449;-85
2022/12/23 12:38:08;;;;;;;1.80;0.30;;;12.30;86.50;;;;;;4937133;29;20036;-84
2022/12/23 12:41:31;;;;;;;0.45;0.30;;;12.20;87.20;;;;;;4879852;29;20180;-83
2022/12/23 12:44:53;;;;;;;1.17;0.22;;;12.30;87.50;;;;;;4861014;29;20036;-84
2022/12/23 12:47:46;;;;;;;0.20;0.20;;;12.20;87.20;;;;;;4860691;29;20072;-84
2022/12/23 12:50:54;;;;;;;0.35;0.20;;;12.20;87.60;;;;;;4854436;29;20034;-83
2022/12/23 12:54:18;;;;;;;0.35;0.10;;;12.30;87.20;;;;;;4823969;29;20067;-84
2022/12/23 12:57:56;;;;;;;0.30;0.10;;;12.40;87.10;;;;;;4825489;29;20598;-84
2022/12/23 13:01:10;;;;;;;0.95;0.10;;;12.40;86.90;;;;;;4833264;29;20046;-84
2022/12/23 13:03:44;;;;;;;0.25;0.20;;;12.40;86.80;;;;;;4862187;29;20033;-84
2022/12/23 13:06:51;;;;;;;0.30;0.20;;;12.40;86.40;;;;;;4879121;29;20052;-84
2022/12/23 13:09:49;;;;;;;0.57;0.20;;;12.50;86.60;;;;;;4882592;29;20040;-84
2022/12/23 13:12:55;;;;;;;0.30;0.20;;;12.60;86.30;;;;;;4904732;29;20071;-88
2022/12/23 13:16:03;;;;;;;0.03;0.03;;;12.60;86.40;;;;;;4914770;29;20050;-87
2022/12/23 13:19:07;;;;;;;0.73;0.28;;;12.70;85.90;;;;;;4936963;29;20035;-87
2022/12/23 13:22:45;;;;;;;0.30;0.20;;;12.70;86.20;;;;;;4922957;29;20198;-88
2022/12/23 13:26:24;;;;;;;0.50;0.25;;;12.80;85.50;;;;;;5002688;28;20498;-86
2022/12/23 13:29:20;;;;;;;3.00;0.40;;;12.90;84.60;;;;;;4994339;28;20023;-81
2022/12/23 13:32:20;;;;;;;3.35;1.55;;;12.90;84.90;;;;;;4995618;28;20547;-85
2022/12/23 13:35:07;;;;;;;1.88;1.00;;;13.00;84.10;;;;;;4966405;28;20054;-82
2022/12/23 13:38:10;;;;;;;0.75;0.50;;;13.10;83.40;;;;;;4993818;28;20035;-86
2022/12/23 13:41:23;;;;;;;1.98;0.70;;;13.10;82.50;;;;;;4995483;28;20471;-85
2022/12/23 13:44:23;;;;;;;0.10;0.10;;;13.10;82.80;;;;;;4993643;28;20387;-84
2022/12/23 13:47:04;;;;;;;1.02;0.30;;;13.20;81.40;;;;;;4995948;28;20046;-83
2022/12/23 13:49:39;;;;;;;0.80;0.30;;;13.20;81.60;;;;;;4995245;28;20034;-82
2022/12/23 13:52:33;;;;;;;1.25;0.38;;;13.20;81.10;;;;;;4994855;28;20158;-82
2022/12/23 13:55:13;;;;;;;0.25;0.20;;;13.20;81.40;;;;;;4995875;28;20104;-83
2022/12/23 13:58:13;;;;;;;0.20;0.20;;;13.30;81.10;;;;;;4994033;28;20022;-83
2022/12/23 14:00:40;;;;;;;2.28;0.30;;;13.30;82.80;;;;;;4980426;28;20030;-83
2022/12/23 14:03:08;;;;;;;1.00;0.40;;;13.30;81.80;;;;;;4993769;28;20395;-83
2022/12/23 14:05:49;;;;;;;0.10;0.10;;;13.30;82.20;;;;;;4993611;28;20039;-83
2022/12/23 14:08:20;;;;;;;0.40;0.20;;;13.20;81.90;;;;;;4993633;28;20031;-83
2022/12/23 14:11:33;;;;;;;0.15;0.10;;;13.20;83.00;;;;;;4995636;28;20026;-85
2022/12/23 14:14:06;;;;;;;0.10;0.10;;;13.00;83.70;;;;;;4993939;28;20051;-84
2022/12/23 14:16:53;;;;;;;0.10;0.10;;;12.90;84.40;;;;;;4977570;28;20133;-84
2022/12/23 14:20:13;;;;;;;0.13;0.13;;;12.90;84.30;;;;;;4995443;28;20053;-82
2022/12/23 14:24:06;;;;;;;0.13;0.13;;;12.90;84.00;;;;;;4916138;29;20036;-83
2022/12/23 14:27:22;;;;;;;0.10;0.10;;;12.90;84.00;;;;;;4915647;29;20135;-81
2022/12/23 14:30:47;;;;;;;0.95;0.10;;;13.00;84.00;;;;;;4916086;29;20036;-85
2022/12/23 14:33:17;;;;;;;0.45;0.20;;;12.90;83.80;;;;;;4878406;29;20045;-81
2022/12/23 14:35:50;;;;;;;0.20;0.20;;;13.00;83.30;;;;;;4877935;29;20048;-83
2022/12/23 14:38:56;;;;;;;0.65;0.30;;;13.00;83.00;;;;;;4867095;29;20115;-83
2022/12/23 14:41:50;;;;;;;0.50;0.40;;;13.10;82.50;;;;;;4915214;29;20079;-82
2022/12/23 14:44:37;;;;;;;0.40;0.30;;;13.20;82.50;;;;;;4898800;29;20056;-82
2022/12/23 14:47:23;;;;;;;1.00;0.32;;;13.20;82.50;;;;;;4899588;29;20119;-77
2022/12/23 14:49:49;;;;;;;0.15;0.15;;;13.20;82.70;;;;;;4895351;29;20036;-78
2022/12/23 14:52:33;;;;;;;0.65;0.22;;;13.10;82.60;;;;;;4946643;28;20034;-79
2022/12/23 14:55:28;;;;;;;0.70;0.55;;;13.10;83.20;;;;;;4955824;28;20479;-78
2022/12/23 14:58:15;;;;;;;0.60;0.35;;;13.10;82.90;;;;;;4955601;28;20069;-79
2022/12/23 15:00:53;;;;;;;0.20;0.20;;;13.10;83.20;;;;;;4955717;28;20078;-79
2022/12/23 15:03:19;;;;;;;0.52;0.00;;;13.10;83.40;;;;;;4968362;28;20031;-79
2022/12/23 15:05:47;;;;;;;0.63;0.30;;;13.10;83.40;;;;;;4992183;28;20044;-80
2022/12/23 15:08:30;;;;;;;1.20;0.30;;;13.10;83.30;;;;;;4976333;28;20046;-79
2022/12/23 15:10:56;;;;;;;0.10;0.10;;;13.10;83.50;;;;;;4992166;28;20022;-78
2022/12/23 15:13:26;;;;;;;0.22;0.20;;;13.00;83.20;;;;;;4992295;28;20050;-79
2022/12/23 15:15:53;;;;;;;0.30;0.20;;;13.10;83.40;;;;;;4992616;28;20026;-79
2022/12/23 15:18:19;;;;;;;0.25;0.10;;;13.00;83.80;;;;;;4991978;28;20026;-79
2022/12/23 15:20:56;;;;;;;1.60;0.60;;;12.90;83.50;;;;;;4991328;28;20089;-81
2022/12/23 15:23:23;;;;;;;0.20;0.20;;;13.00;83.50;;;;;;4975993;28;20041;-83
2022/12/23 15:25:56;;;;;;;0.30;0.10;;;13.00;83.30;;;;;;4992007;28;20038;-79
2022/12/23 15:28:32;;;;;;;0.55;0.10;;;13.00;83.30;;;;;;4992180;28;20018;-78
2022/12/23 15:30:57;;;;;;;0.20;0.20;;;13.00;83.50;;;;;;5102762;23;20037;-78
2022/12/23 15:33:28;;;;;;;0.77;0.25;;;13.00;83.60;;;;;;5010752;28;20034;-78
2022/12/23 15:35:54;;;;;;;0.17;0.17;;;12.90;84.30;;;;;;5011948;28;20029;-81
2022/12/23 15:38:21;;;;;;;1.08;0.20;;;12.90;84.30;;;;;;5011553;28;20030;-78
2022/12/23 15:41:01;;;;;;;1.02;0.30;;;12.90;84.90;;;;;;5011461;28;20064;-78
2022/12/23 15:43:27;;;;;;;0.20;0.17;;;12.90;84.40;;;;;;5011408;28;20033;-79
2022/12/23 15:45:53;;;;;;;0.52;0.30;;;12.90;84.20;;;;;;5011050;28;20037;-78